KLFT

Lafayette Regional / Paul Fournet Field Airport

Lafayette, Louisiana, USA
METAR KLFT 230953Z AUTO 16005KT 7SM OVC006 22/22 A3022 RMK AO2 CIG 005V009 SLP234 T02220217
Observed Flight Rules
Feb-23 @ 09:53 UTC (35 minutes ago) Instrument Flight Rules
Wind Visibility Clouds
160° at 5 knots 7 miles
  • Overcast at 600' AGL
Temperatures Readings
Current 22°C / 72°F
Dewpoint 22°C / 72°F
Humidity 100%
Altimeter 30.22" Hg
Pressure 1023.4 hPa
Elevation 11
METAR KLFT 230953Z AUTO 16005KT 7SM OVC006 22/22 A3022 RMK AO2 CIG 005V009 SLP234 T02220217
Observed Flight Rules
Feb-23 @ 09:53 UTC
(35 minutes ago)
IFR
Wind Visibility
160° at 5 knots 7 miles
Clouds
  • Overcast at 600' AGL
Temperature Dewpoint
22°C / 72°F 22°C / 72°F
Humidity Altimeter Pressure
100% 30.22" Hg 1023.4 hPa